»·PEaware :: OM-ALJ KSBP-KSMX

OM-ALJ :: KSBP-KSMX

FLIGHT INFORMATION

Flight Status: Arrived
Operator: Privately registered:
Slovakia
More flights under this callsign
Pilot: Jan A. (20210)
Aircraft: CESSNA 172 SKYHAWK
(C172)
More flights by this aircraft type
Origin: KSBP San Luis Co Regl
United States
Destination: KSMX Santa Maria Pub/Capt Hancock
United States
More flights between these airports :: More routes between these airports
Route:
File this flight plan on PilotEdge
Remarks:
Altitude:
(Current/Filed)
2,500ft
Speed:
(Current/Filed)
105kts
Departed: 07-Oct-18 02:13 PM
Arrived: 07-Oct-18 02:35 PM
Distance/Time
Traveled:
22nm/0:22
Distance/Time
To Go:
Arrived

Flight Plot

Page will automatically refresh every two minutes.


Map Options




Map Legend


Flown Route
Filed Route
Departure Airport
Arrival Airport
Navaid (VOR, NDB)
Fix

Horizontal Profiles

Position Reports

Time Latitude Longitude Heading Altitude Ground
Speed
07-Oct-18 13:37 35.235484 -120.635142 201 209ft 0kts
07-Oct-18 13:38 35.235484 -120.635142 201 209ft 0kts
07-Oct-18 13:39 35.235484 -120.635142 201 209ft 0kts
07-Oct-18 13:40 35.235484 -120.635142 201 209ft 0kts
07-Oct-18 13:41 35.235484 -120.635142 201 209ft 0kts
07-Oct-18 13:42 35.235484 -120.635142 201 209ft 0kts
07-Oct-18 13:43 35.235484 -120.635142 201 209ft 0kts
07-Oct-18 13:44 35.235484 -120.635142 201 209ft 0kts
07-Oct-18 13:45 35.235484 -120.635142 201 209ft 0kts
07-Oct-18 13:46 35.235484 -120.635142 201 209ft 0kts
07-Oct-18 13:47 35.235484 -120.635142 201 209ft 0kts
07-Oct-18 13:48 35.235484 -120.635142 201 209ft 0kts
07-Oct-18 13:49 35.235484 -120.635142 201 209ft 0kts
07-Oct-18 13:50 35.235484 -120.635142 201 209ft 0kts
07-Oct-18 13:51 35.235484 -120.635142 201 209ft 0kts
07-Oct-18 13:52 35.235484 -120.635142 201 209ft 0kts
07-Oct-18 13:53 35.235484 -120.635142 201 209ft 0kts
07-Oct-18 13:54 35.235484 -120.635142 201 209ft 0kts
07-Oct-18 13:55 35.235484 -120.635142 201 209ft 0kts
07-Oct-18 13:56 35.235484 -120.635142 201 209ft 0kts
07-Oct-18 13:57 35.235484 -120.635142 201 209ft 0kts
07-Oct-18 13:58 35.235484 -120.635142 201 209ft 0kts
07-Oct-18 13:59 35.235484 -120.635142 201 209ft 0kts
07-Oct-18 14:00 35.235484 -120.635142 201 209ft 0kts
07-Oct-18 14:01 35.235484 -120.635142 201 209ft 0kts
07-Oct-18 14:02 35.235484 -120.635142 201 209ft 0kts
07-Oct-18 14:03 35.235484 -120.635142 201 209ft 0kts
07-Oct-18 14:04 35.235484 -120.635142 201 209ft 0kts
07-Oct-18 14:05 35.235484 -120.635142 201 209ft 0kts
07-Oct-18 14:06 35.235484 -120.635142 201 209ft 0kts
07-Oct-18 14:07 35.235372 -120.635556 265 207ft 9kts
07-Oct-18 14:08 35.238002 -120.640445 298 188ft 18kts
07-Oct-18 14:09 35.240337 -120.644353 304 173ft 21kts
07-Oct-18 14:10 35.242425 -120.648605 241 155ft 0kts
07-Oct-18 14:11 35.242397 -120.648670 239 155ft 0kts
07-Oct-18 14:12 35.240541 -120.644677 125 171ft 18kts
07-Oct-18 14:13 35.236962 -120.638388 124 196ft 32kts
07-Oct-18 14:14 35.232808 -120.632938 265 210ft 14kts
07-Oct-18 14:15 35.244129 -120.653226 300 711ft 91kts
07-Oct-18 14:16 35.247809 -120.680214 225 1444ft 88kts
07-Oct-18 14:17 35.223945 -120.685620 179 1954ft 103kts
07-Oct-18 14:18 35.194393 -120.686044 178 2118ft 111kts
07-Oct-18 14:19 35.164728 -120.676421 164 2242ft 112kts
07-Oct-18 14:20 35.137952 -120.655470 116 1938ft 130kts
07-Oct-18 14:21 35.119727 -120.620134 141 1868ft 123kts
07-Oct-18 14:22 35.090377 -120.600123 136 1777ft 122kts
07-Oct-18 14:23 35.063000 -120.576565 159 1682ft 122kts
07-Oct-18 14:24 35.029549 -120.571172 172 1611ft 121kts
07-Oct-18 14:25 34.996888 -120.561578 117 1020ft 121kts
07-Oct-18 14:26 34.996396 -120.527833 94 741ft 80kts
07-Oct-18 14:27 34.988114 -120.506430 120 850ft 70kts
07-Oct-18 14:28 34.992505 -120.508881 209 874ft 71kts
07-Oct-18 14:29 34.981542 -120.506574 314 797ft 81kts
07-Oct-18 14:30 34.990562 -120.490504 110 1136ft 104kts
07-Oct-18 14:31 34.968104 -120.463815 152 1338ft 133kts
07-Oct-18 14:32 34.935190 -120.447902 174 1381ft 91kts
07-Oct-18 14:33 34.915313 -120.444741 175 1169ft 63kts
07-Oct-18 14:34 34.898989 -120.433324 141 1108ft 74kts
07-Oct-18 14:35 34.882970 -120.424563 228 1021ft 68kts
07-Oct-18 14:36 34.891316 -120.444034 315 341ft 61kts
07-Oct-18 14:37 34.897652 -120.450010 359 264ft 0kts
07-Oct-18 14:38 34.897652 -120.450010 359 264ft 0kts
07-Oct-18 14:39 34.897652 -120.450010 359 264ft 0kts
07-Oct-18 14:40 34.897652 -120.450010 359 264ft 0kts
07-Oct-18 14:41 34.897652 -120.450010 359 264ft 0kts
07-Oct-18 14:42 34.899827 -120.449770 1 264ft 0kts

Navigation Log

Ident Type
1. KSBP Airport
2. KSMX Airport